createdAt,value
2019-02-23T15:26:45.482Z,84.13
2019-02-23T15:29:29.735Z,82.53
2019-02-23T15:32:35.564Z,87.60
2019-02-23T15:35:20.174Z,80.38
2019-02-23T15:38:13.262Z,78.95
2019-02-23T15:40:50.910Z,79.60
2019-02-23T15:43:41.457Z,80.65
2019-02-23T15:46:26.139Z,81.15
2019-02-23T15:49:24.527Z,72.12
2019-02-23T15:51:53.844Z,80.75
2019-02-23T15:54:23.414Z,80.38
2019-02-23T15:56:52.719Z,74.07
2019-02-23T15:59:22.056Z,73.60
2019-02-23T16:01:50.794Z,71.07
2019-02-23T16:04:19.560Z,76.72
2019-02-23T16:06:48.332Z,61.55
2019-02-23T16:09:16.964Z,79.97
2019-02-23T16:11:46.290Z,73.75
2019-02-23T16:14:15.598Z,81.78
2019-02-23T16:16:47.310Z,60.00
2019-02-23T16:19:15.806Z,61.00
2019-02-23T16:21:45.227Z,55.65
2019-02-23T16:24:14.781Z,58.40
2019-02-23T16:26:44.061Z,67.25
2019-02-23T16:29:13.273Z,65.97
2019-02-23T16:31:42.580Z,76.25
2019-02-23T16:34:11.861Z,76.12
2019-02-23T16:36:41.152Z,52.88
2019-02-23T16:39:22.563Z,58.02
2019-02-23T16:41:52.060Z,76.70
2019-02-23T16:44:21.116Z,69.62
2019-02-23T16:46:51.569Z,68.22
2019-02-23T16:49:20.881Z,62.20
2019-02-23T16:51:50.269Z,75.00
2019-02-23T16:54:19.999Z,61.25
2019-02-23T16:56:49.622Z,80.38
2019-02-23T16:59:19.049Z,49.38
2019-02-23T17:01:48.316Z,60.50
2019-02-23T17:04:17.620Z,76.90
2019-02-23T17:06:47.498Z,55.55
2019-02-23T17:09:16.895Z,70.47
2019-02-23T17:11:46.235Z,98.67
2019-02-23T17:14:15.558Z,63.48
2019-02-23T17:16:45.094Z,72.40
2019-02-23T17:19:14.640Z,73.97
2019-02-23T17:21:44.164Z,62.08
2019-02-23T17:24:13.457Z,83.58
2019-02-23T17:26:42.760Z,67.03
2019-02-23T17:29:12.107Z,87.22
2019-02-23T17:31:41.392Z,85.87
2019-02-23T17:34:10.690Z,65.95
2019-02-23T17:36:39.450Z,50.45
2019-02-23T17:39:10.230Z,71.20
2019-02-23T17:41:40.401Z,72.80
2019-02-23T17:44:09.930Z,92.62
2019-02-23T17:46:39.308Z,83.10
2019-02-23T17:49:08.624Z,75.80
2019-02-23T17:51:37.385Z,80.83
2019-02-23T17:54:07.003Z,76.22
2019-02-23T17:56:36.305Z,52.13
2019-02-23T17:59:05.640Z,59.93
2019-02-23T18:01:35.267Z,73.00
2019-02-23T18:04:04.530Z,60.40
2019-02-23T18:06:33.852Z,48.17
2019-02-23T18:09:03.098Z,47.50
2019-02-23T18:11:31.853Z,64.37
2019-02-23T18:14:00.579Z,53.28
2019-02-23T18:16:29.635Z,44.58
2019-02-23T18:18:58.381Z,46.28
2019-02-23T18:21:27.645Z,57.25
2019-02-23T18:23:57.210Z,40.55
2019-02-23T18:26:26.838Z,43.98
2019-02-23T18:28:55.580Z,60.85
2019-02-23T18:31:24.863Z,37.70
2019-02-23T18:33:54.146Z,53.00
2019-02-23T18:36:23.816Z,44.25
2019-02-23T18:38:53.526Z,39.38
2019-02-23T18:41:22.879Z,36.88
2019-02-23T18:43:51.630Z,32.88
2019-02-23T18:46:20.334Z,36.20
2019-02-23T18:48:49.115Z,46.75
2019-02-23T18:51:17.865Z,31.65
2019-02-23T18:53:47.183Z,38.65
2019-02-23T18:56:16.497Z,37.42
2019-02-23T18:58:45.788Z,41.45
2019-02-23T19:01:15.089Z,35.03
2019-02-23T19:03:44.347Z,34.55
2019-02-23T19:06:13.644Z,36.95
2019-02-23T19:08:43.371Z,28.15
2019-02-23T19:11:12.651Z,27.05
2019-02-23T19:13:41.953Z,25.30
2019-02-23T19:16:11.055Z,31.55
2019-02-23T19:18:40.667Z,32.90
2019-02-23T19:21:09.921Z,36.23
2019-02-23T19:23:38.770Z,34.33
2019-02-23T19:26:07.529Z,44.63
2019-02-23T19:28:43.074Z,40.78
2019-02-23T19:31:07.462Z,36.05
2019-02-23T19:33:36.789Z,30.15
2019-02-23T19:36:06.272Z,30.02
2019-02-23T19:38:35.462Z,30.37
2019-02-23T19:41:04.779Z,36.85
2019-02-23T19:43:34.498Z,31.40
2019-02-23T19:46:03.882Z,20.02
2019-02-23T19:48:33.167Z,26.30
2019-02-23T19:51:05.895Z,15.58
2019-02-23T19:53:35.196Z,15.45
2019-02-23T19:56:04.502Z,12.05
2019-02-23T19:58:33.798Z,10.00
2019-02-23T20:01:03.088Z,15.65
2019-02-23T20:03:32.365Z,11.70
2019-02-23T20:06:01.683Z,11.50
2019-02-23T20:08:30.343Z,8.05
2019-02-23T20:10:59.712Z,13.35
2019-02-23T20:13:28.943Z,6.30
2019-02-23T20:15:58.140Z,13.00
2019-02-23T20:18:27.827Z,10.63
2019-02-23T20:20:57.029Z,9.20
2019-02-23T20:23:27.926Z,10.72
2019-02-23T20:25:56.605Z,10.45
2019-02-23T20:28:25.915Z,9.18
2019-02-23T20:30:54.650Z,5.92
2019-02-23T20:33:24.236Z,8.10
2019-02-23T20:35:53.851Z,10.58
2019-02-23T20:38:23.133Z,9.13
2019-02-23T20:40:52.442Z,5.72
2019-02-23T20:43:21.989Z,7.40
2019-02-23T20:45:51.305Z,7.12
2019-02-23T20:48:20.086Z,5.70
2019-02-23T20:50:49.392Z,5.85
2019-02-23T20:53:18.974Z,7.30
2019-02-23T20:55:49.484Z,4.78
2019-02-23T20:58:18.786Z,6.28
2019-02-23T21:00:47.495Z,4.05
2019-02-23T21:03:16.189Z,6.78
2019-02-23T21:05:45.520Z,5.40
2019-02-23T21:08:14.321Z,5.50
2019-02-23T21:10:43.645Z,9.55
2019-02-23T21:13:13.351Z,7.28
2019-02-23T21:15:41.997Z,8.60
2019-02-23T21:18:10.737Z,6.28
2019-02-23T21:20:39.526Z,5.03
2019-02-23T21:23:08.439Z,7.22
2019-02-23T21:25:37.361Z,12.68
2019-02-23T21:28:06.680Z,11.03
2019-02-23T21:30:35.386Z,23.47
2019-02-23T21:33:04.696Z,8.45
2019-02-23T21:35:34.249Z,6.05
2019-02-23T21:38:03.981Z,8.68
2019-02-23T21:40:33.037Z,7.22
2019-02-23T21:43:01.995Z,6.75
2019-02-23T21:45:30.752Z,7.92
2019-02-23T21:47:59.541Z,8.78
2019-02-23T21:50:28.681Z,9.80
2019-02-23T21:52:58.719Z,8.30
2019-02-23T21:55:27.615Z,6.97
2019-02-23T21:57:57.027Z,8.00
2019-02-23T22:00:27.021Z,9.30
2019-02-23T22:02:56.273Z,10.13
2019-02-23T22:05:26.786Z,7.53
2019-02-23T22:07:56.387Z,8.50
2019-02-23T22:10:25.564Z,7.90
2019-02-23T22:12:55.151Z,5.53
2019-02-23T22:15:24.456Z,9.60
2019-02-23T22:17:53.166Z,8.83
2019-02-23T22:20:22.010Z,7.97
2019-02-23T22:22:51.234Z,6.53
2019-02-23T22:25:20.224Z,4.85
2019-02-23T22:27:49.667Z,6.45
2019-02-23T22:30:19.060Z,8.18
2019-02-23T22:32:48.416Z,7.67
2019-02-23T22:35:17.677Z,8.93
2019-02-23T22:37:47.412Z,9.48
2019-02-23T22:40:16.104Z,6.80
2019-02-23T22:42:45.109Z,10.98
2019-02-23T22:45:13.831Z,8.68
2019-02-23T22:47:42.625Z,9.85
2019-02-23T22:50:12.320Z,5.67
2019-02-23T22:52:41.208Z,12.47
2019-02-23T22:55:10.481Z,6.25
2019-02-23T22:57:40.924Z,12.63
2019-02-23T23:00:14.010Z,11.83
2019-02-23T23:02:43.538Z,5.60
2019-02-23T23:05:12.261Z,16.93
2019-02-23T23:07:41.506Z,6.25
2019-02-23T23:10:10.476Z,7.90
2019-02-23T23:12:39.223Z,9.15
2019-02-23T23:15:08.664Z,12.45
2019-02-23T23:17:37.521Z,12.03
2019-02-23T23:20:08.048Z,12.73
2019-02-23T23:22:37.400Z,13.23
2019-02-23T23:25:07.244Z,11.20
2019-02-23T23:27:36.101Z,5.67
2019-02-23T23:30:07.595Z,5.20
2019-02-23T23:32:36.304Z,9.90
2019-02-23T23:35:06.000Z,8.53
2019-02-23T23:37:34.701Z,8.30
2019-02-23T23:40:04.986Z,6.45
2019-02-23T23:42:34.122Z,10.27
2019-02-23T23:45:03.798Z,15.00
2019-02-23T23:47:32.745Z,6.87
2019-02-23T23:50:01.939Z,7.17
2019-02-23T23:52:31.529Z,8.48
2019-02-23T23:55:00.269Z,11.90
2019-02-23T23:57:29.555Z,14.28
2019-02-23T23:59:58.275Z,11.17
